• Join FlightAware (Why Join?)
  • Login
  • US Flag 
12:08PM EST


 

Airport Tracker/Info


-or-


 

Live Flight TrackerFlight Track Log ✈ JIA2328 ✈ 30-Apr-2013 ✈ KCLT - KOAJ

Flight Track Log - Related Links

Times and Time Zones

All times are in EDT time to prevent confusion due to time zone crossing. See the JIA2328 flight status page for this flight to view local times or setup timezone preferences in your user account.

Time Position Orientation Groundspeed Altitude Reporting Facility
EDT Latitude Longitude Course Direction KTS MPH feet Rate Location/Type
06:00PM 35.1844 -80.9358 106° East 170 196 1,800  Level Atlanta Center
06:01PM 35.1592 -80.9167 148° Southeast 180 207 3,100 1,980 Climbing Atlanta Center
06:02PM 35.1425 -80.8411 105° East 247 284 5,200 2,100 Climbing Atlanta Center
06:02PM 35.1331 -80.8033 107° East 262 302 5,800 2,640 Climbing Atlanta Center
06:03PM 35.0921 -80.7210 82° East  Level FlightAware Approximate
06:03PM 35.1236 -80.7553 103° East 275 316 7,900  Level Atlanta Center
06:03PM 35.1122 -80.7203 112° Southeast 262 302 8,200 1,860 Climbing Atlanta Center
06:04PM 35.0970 -80.6228 109° East  Level FlightAware Approximate
06:05PM 35.0667 -80.5048 90° East  Level FlightAware Approximate
06:06PM 35.0395 -80.3852 106° East  Level FlightAware Approximate
06:06PM 35.0642 -80.4994 105° East 324 373 12,800  Level Washington Center
06:07PM 35.0375 -80.3839 106° East 341 392 14,700 1,740 Climbing Washington Center
06:08PM 35.0131 -80.2658 104° East 353 406 16,300 1,500 Climbing Washington Center
06:09PM 34.9881 -80.1553 105° East 367 422 17,700 1,260 Climbing Washington Center
06:10PM 34.9550 -80.0369 109° East 372 428 18,900 600 Climbing Washington Center
06:11PM 34.9372 -79.8939 99° East 372 428 19,000  Climbing Washington Center
06:12PM 34.9353 -79.7747 91° East 367 422 19,000  Level Washington Center
06:13PM 34.9311 -79.6556 92° East 362 417 19,000  Level Washington Center
06:14PM 34.9247 -79.5361 94° East 357 411 19,000  Level Washington Center
06:15PM 34.9200 -79.4194 93° East 350 403 19,000  Level Washington Center
06:16PM 34.9133 -79.3050 94° East 350 403 19,000  Level Washington Center
06:17PM 34.9106 -79.1883 92° East 350 403 19,000  Level Washington Center
06:18PM 34.9033 -79.0817 95° East 350 403 19,000 -600 Level Washington Center
06:19PM 34.9006 -78.9653 92° East 350 403 17,900 -1,320 Descending Washington Center
06:20PM 34.8956 -78.8433 93° East 335 386 16,400 -1,440 Descending Washington Center
06:21PM 34.8897 -78.7444 94° East 330 380 15,100 -1,380 Descending Washington Center
06:22PM 34.8822 -78.6378 95° East 330 380 13,700 -1,380 Descending Washington Center
06:23PM 34.8786 -78.5314 92° East 324 373 12,400 -1,140 Descending Washington Center
06:24PM 34.8728 -78.4272 94° East 318 366 11,500 -960 Descending Washington Center
06:25PM 34.8689 -78.3233 93° East 312 359 10,600 -1,380 Descending Washington Center
06:26PM 34.8628 -78.2269 94° East 302 348 8,700 -1,920 Descending Washington Center
06:27PM 34.8583 -78.1333 93° East 286 329 6,900 -1,860 Descending Washington Center
06:28PM 34.8539 -78.0444 93° East 276 318 5,100 -1,860 Descending Washington Center
06:29PM 34.8494 -77.9583 94° East 265 305 3,200 -1,080 Descending Washington Center
06:30PM 34.8428 -77.8722 95° East 260 299 3,000 -660 Descending Washington Center
06:31PM 34.8403 -77.7886 92° East 254 292 2,000 -1,020 Descending Washington Center